Time;durP1;ratioP1;P1;durP2;ratioP2;P2;SDS_P1;SDS_P2;PMS_P1;PMS_P2;Temp;Humidity;BMP_temperature;BMP_pressure;BME280_temperature;BME280_humidity;BME280_pressure;Samples;Min_cycle;Max_cycle;Signal;HPM_P1;HPM_P2
2022/07/07 00:00:56;;;;;;;;;2.00;1.00;;;;;20.44;52.10;102185.97;5065869;28;48074;-84
2022/07/07 00:03:21;;;;;;;;;1.00;1.00;;;;;20.44;52.22;102178.81;5084452;28;45235;-85
2022/07/07 00:05:46;;;;;;;;;2.33;2.00;;;;;20.42;52.02;102180.66;5084225;28;45804;-85
2022/07/07 00:08:12;;;;;;;;;2.00;2.00;;;;;20.42;52.11;102188.69;5066298;28;45781;-84
2022/07/07 00:10:37;;;;;;;;;2.00;2.00;;;;;20.38;52.58;102186.97;5063217;28;47236;-85
2022/07/07 00:13:03;;;;;;;;;2.00;2.00;;;;;20.33;52.34;102185.31;5057681;28;45674;-85
2022/07/07 00:15:28;;;;;;;;;2.00;2.00;;;;;20.30;53.08;102180.03;5082519;28;45443;-85
2022/07/07 00:17:54;;;;;;;;;1.33;1.33;;;;;20.22;52.57;102178.41;5065915;28;46107;-86
2022/07/07 00:20:19;;;;;;;;;1.00;1.00;;;;;20.23;52.98;102179.28;5048976;28;47454;-85
2022/07/07 00:22:44;;;;;;;;;1.00;1.00;;;;;20.14;52.75;102166.13;5058265;28;45526;-85
2022/07/07 00:25:13;;;;;;;;;1.67;1.33;;;;;20.19;53.07;102178.47;5084475;28;45440;-85
2022/07/07 00:27:38;;;;;;;;;2.00;2.00;;;;;20.18;53.29;102190.09;5065261;28;45449;-85
2022/07/07 00:30:05;;;;;;;;;1.00;1.00;;;;;20.11;52.95;102180.44;5065254;28;47476;-85
2022/07/07 00:32:31;;;;;;;;;2.67;2.00;;;;;20.12;53.19;102187.53;5065956;28;45276;-84
2022/07/07 00:34:56;;;;;;;;;1.67;1.00;;;;;20.00;52.95;102164.59;5045274;28;45855;-85
2022/07/07 00:37:22;;;;;;;;;3.00;3.00;;;;;20.02;53.19;102164.56;5076033;28;45943;-85
2022/07/07 00:39:47;;;;;;;;;2.33;2.00;;;;;20.04;53.29;102160.94;5058342;28;47567;-86
2022/07/07 00:42:14;;;;;;;;;4.00;4.00;;;;;20.02;53.61;102153.84;5074566;28;45404;-85
2022/07/07 00:44:41;;;;;;;;;3.00;2.00;;;;;19.96;53.34;102154.88;5078440;28;45603;-85
2022/07/07 00:47:06;;;;;;;;;3.67;3.00;;;;;19.92;53.79;102142.50;5073620;28;45409;-86
2022/07/07 00:49:32;;;;;;;;;4.00;2.00;;;;;20.00;53.79;102158.38;5061466;28;48280;-86
2022/07/07 00:51:59;;;;;;;;;2.00;2.00;;;;;19.93;53.98;102144.25;5075879;28;45240;-85
2022/07/07 00:54:25;;;;;;;;;3.00;2.00;;;;;19.93;53.80;102144.25;5084047;28;45226;-86
2022/07/07 00:56:50;;;;;;;;;2.67;2.00;;;;;19.83;53.85;102132.88;5082998;28;45586;-85
2022/07/07 00:59:16;;;;;;;;;3.00;3.00;;;;;19.89;53.88;102144.31;5064813;28;47149;-85
2022/07/07 01:01:42;;;;;;;;;2.00;1.00;;;;;19.76;54.05;102127.69;5081375;28;45285;-86
2022/07/07 01:04:10;;;;;;;;;3.00;2.50;;;;;19.81;54.26;102132.00;5064605;28;45469;-86
2022/07/07 01:06:35;;;;;;;;;4.00;4.00;;;;;19.71;54.15;102116.19;5065431;28;45543;-85
2022/07/07 01:09:02;;;;;;;;;2.33;2.33;;;;;19.76;54.63;102136.56;5081283;28;47215;-84
2022/07/07 01:11:27;;;;;;;;;4.33;3.33;;;;;19.74;54.61;102129.50;5052346;28;45438;-86
2022/07/07 01:13:53;;;;;;;;;5.00;4.00;;;;;19.64;54.63;102118.06;5076010;28;45378;-85
2022/07/07 01:16:18;;;;;;;;;3.75;3.50;;;;;19.66;54.76;102121.63;5057255;28;45356;-86
2022/07/07 01:18:44;;;;;;;;;1.67;1.67;;;;;19.67;54.94;102122.50;5064976;28;47373;-86
2022/07/07 01:21:12;;;;;;;;;3.67;2.67;;;;;19.59;55.02;102120.84;5068815;28;45292;-85
2022/07/07 01:23:40;;;;;;;;;1.67;1.00;;;;;19.58;55.18;102123.53;5062181;28;45425;-86
2022/07/07 01:26:06;;;;;;;;;3.00;3.00;;;;;19.59;55.03;102120.84;5071831;28;45433;-86
2022/07/07 01:28:32;;;;;;;;;2.00;2.00;;;;;19.66;55.11;102142.09;5064974;28;47035;-86
2022/07/07 01:30:58;;;;;;;;;3.00;3.00;;;;;19.60;55.22;102121.72;5064886;28;45419;-86
2022/07/07 01:33:23;;;;;;;;;3.50;3.25;;;;;19.61;54.94;102121.66;5065461;28;45375;-86
2022/07/07 01:35:49;;;;;;;;;2.33;2.33;;;;;19.58;54.85;102118.19;5083144;28;45333;-87
2022/07/07 01:38:14;;;;;;;;;4.00;4.00;;;;;19.58;54.92;102121.72;5062934;28;47059;-86
2022/07/07 01:40:40;;;;;;;;;2.67;2.67;;;;;19.55;55.47;102120.91;5063393;28;45333;-87
2022/07/07 01:43:06;;;;;;;;;3.67;3.00;;;;;19.53;55.54;102128.06;5066238;28;45325;-87
2022/07/07 01:45:31;;;;;;;;;2.33;1.00;;;;;19.42;55.29;102112.25;5063942;28;45315;-86
2022/07/07 01:47:56;;;;;;;;;2.33;2.33;;;;;19.41;55.32;102113.16;5066512;28;47200;-87
2022/07/07 01:50:22;;;;;;;;;3.00;3.00;;;;;19.30;55.58;102108.03;5067668;28;45251;-86
2022/07/07 01:52:47;;;;;;;;;4.00;1.67;;;;;19.29;55.71;102103.56;5067670;28;45371;-84
2022/07/07 01:55:12;;;;;;;;;3.00;3.00;;;;;19.37;55.79;102122.13;5066906;28;45265;-86
2022/07/07 01:57:38;;;;;;;;;3.67;3.67;;;;;19.30;55.52;102105.34;5084841;28;45235;-86
2022/07/07 02:00:06;;;;;;;;;2.00;2.00;;;;;19.31;56.21;102108.91;5064015;28;45232;-86
2022/07/07 02:02:32;;;;;;;;;5.00;3.00;;;;;19.21;56.62;102096.63;5067674;28;45441;-86
2022/07/07 02:04:57;;;;;;;;;2.00;2.00;;;;;19.21;56.24;102100.16;5054645;28;45515;-85
2022/07/07 02:07:23;;;;;;;;;2.00;2.00;;;;;19.20;56.15;102095.75;5065193;28;47825;-86
2022/07/07 02:09:48;;;;;;;;;3.33;3.33;;;;;19.22;56.46;102093.94;5066706;28;45265;-86
2022/07/07 02:12:14;;;;;;;;;4.25;4.00;;;;;19.22;56.32;102101.03;5084884;28;45495;-86
2022/07/07 02:14:40;;;;;;;;;2.00;2.00;;;;;19.16;56.13;102089.59;5085862;28;45235;-86
2022/07/07 02:17:05;;;;;;;;;4.00;3.00;;;;;19.12;56.33;102077.19;5084738;28;46424;-86
2022/07/07 02:19:31;;;;;;;;;2.33;1.67;;;;;19.15;56.56;102098.47;5066569;28;45237;-86
2022/07/07 02:21:56;;;;;;;;;5.00;3.00;;;;;19.09;56.55;102095.94;5064365;28;45493;-85
2022/07/07 02:24:21;;;;;;;;;4.00;3.00;;;;;19.07;56.71;102105.75;5058982;28;45277;-86
2022/07/07 02:26:47;;;;;;;;;4.00;3.67;;;;;19.06;56.81;102104.00;5066560;28;47225;-85
2022/07/07 02:29:13;;;;;;;;;2.00;2.00;;;;;19.02;56.93;102096.94;5067890;28;45645;-85
2022/07/07 02:31:38;;;;;;;;;2.00;2.00;;;;;19.03;56.98;102106.72;5067507;28;45507;-86
2022/07/07 02:34:04;;;;;;;;;3.25;2.00;;;;;18.94;57.06;102091.72;5080798;28;45457;-86
2022/07/07 02:36:29;;;;;;;;;4.33;3.00;;;;;19.03;57.02;102105.81;5066099;28;46960;-86
2022/07/07 02:38:55;;;;;;;;;3.00;3.00;;;;;18.92;57.35;102093.56;5080952;28;45346;-85
2022/07/07 02:41:20;;;;;;;;;1.33;1.33;;;;;18.99;57.06;102104.13;5066060;28;45422;-87
2022/07/07 02:43:47;;;;;;;;;3.00;3.00;;;;;18.89;57.08;102084.72;5086190;28;45742;-86
2022/07/07 02:46:14;;;;;;;;;4.00;3.75;;;;;18.79;57.40;102086.66;5064781;28;47662;-86
2022/07/07 02:48:40;;;;;;;;;6.25;5.00;;;;;18.91;57.68;102101.59;5077410;28;45208;-85
2022/07/07 02:51:08;;;;;;;;;4.00;3.00;;;;;18.84;57.34;102081.22;5053323;28;45212;-86
2022/07/07 02:53:34;;;;;;;;;4.75;4.00;;;;;18.83;57.64;102088.38;5066213;28;45391;-86
2022/07/07 02:56:00;;;;;;;;;3.75;3.50;;;;;18.90;57.54;102102.50;5066870;28;47506;-87
2022/07/07 02:58:26;;;;;;;;;4.50;4.00;;;;;18.86;57.71;102104.31;5081482;28;45418;-87
2022/07/07 03:00:54;;;;;;;;;4.75;4.75;;;;;18.84;57.72;102098.13;5065656;28;45445;-86
2022/07/07 03:03:19;;;;;;;;;4.25;4.25;;;;;18.83;57.89;102099.03;5065597;28;45583;-86
2022/07/07 03:05:45;;;;;;;;;3.75;3.75;;;;;18.72;58.07;102085.84;5065990;28;46980;-87
2022/07/07 03:08:10;;;;;;;;;5.25;4.00;;;;;18.79;58.02;102092.00;5054408;28;45596;-87
2022/07/07 03:10:36;;;;;;;;;4.50;4.25;;;;;18.69;57.90;102083.22;5080668;28;45249;-86
2022/07/07 03:13:02;;;;;;;;;5.25;5.00;;;;;18.76;58.43;102093.81;5077459;28;44829;-87
2022/07/07 03:15:27;;;;;;;;;5.25;4.75;;;;;18.61;58.32;102068.25;5085138;28;46206;-86
2022/07/07 03:17:53;;;;;;;;;3.25;3.25;;;;;18.61;58.39;102073.59;5085327;28;45278;-86
2022/07/07 03:20:19;;;;;;;;;4.25;4.25;;;;;18.61;58.14;102085.13;5066860;28;45198;-86
2022/07/07 03:22:45;;;;;;;;;4.25;4.25;;;;;18.49;58.04;102062.19;5067873;28;45771;-86
2022/07/07 03:25:11;;;;;;;;;6.00;6.00;;;;;18.62;58.43;102086.00;5064352;28;47072;-87
2022/07/07 03:27:37;;;;;;;;;4.50;3.75;;;;;18.62;58.43;102102.00;5058574;28;45505;-86
2022/07/07 03:30:07;;;;;;;;;6.00;3.50;;;;;18.55;58.33;102087.91;5080644;28;45376;-86
2022/07/07 03:32:33;;;;;;;;;7.00;6.00;;;;;18.55;58.54;102092.31;5063575;28;45277;-86
2022/07/07 03:34:58;;;;;;;;;4.00;4.00;;;;;18.50;58.50;102087.97;5065417;28;47419;-86
2022/07/07 03:37:24;;;;;;;;;4.00;3.50;;;;;18.47;58.84;102095.09;5066995;28;45671;-86
2022/07/07 03:39:50;;;;;;;;;4.00;4.00;;;;;18.44;59.05;102088.06;5068233;28;45335;-86
2022/07/07 03:42:15;;;;;;;;;3.50;3.50;;;;;18.38;58.96;102082.81;5066555;28;45379;-85
2022/07/07 03:44:40;;;;;;;;;4.00;4.00;;;;;18.39;59.07;102089.91;5080017;28;47561;-86
2022/07/07 03:47:06;;;;;;;;;6.50;4.50;;;;;18.28;59.37;102078.50;5074584;28;44812;-85
2022/07/07 03:49:32;;;;;;;;;4.50;3.00;;;;;18.33;59.40;102092.66;5054636;28;45494;-85
2022/07/07 03:51:59;;;;;;;;;4.00;4.00;;;;;18.30;59.43;102080.25;5067259;28;45328;-86
2022/07/07 03:54:26;;;;;;;;;4.50;4.50;;;;;18.11;59.75;102052.09;5067144;28;47141;-86
2022/07/07 03:56:52;;;;;;;;;4.00;4.00;;;;;18.23;59.60;102065.25;5084774;28;45242;-86
2022/07/07 03:59:17;;;;;;;;;5.33;4.67;;;;;18.22;59.71;102067.94;5084151;28;45411;-85
2022/07/07 04:01:44;;;;;;;;;3.33;3.33;;;;;18.27;59.91;102077.63;5066208;28;45927;-85
2022/07/07 04:04:11;;;;;;;;;3.00;3.00;;;;;18.22;60.04;102076.81;5060220;28;47123;-85
2022/07/07 04:06:36;;;;;;;;;5.75;5.00;;;;;18.22;60.16;102066.13;5075337;28;45807;-86
2022/07/07 04:09:04;;;;;;;;;6.00;4.00;;;;;18.22;59.93;102074.13;5083890;28;45412;-86
2022/07/07 04:11:30;;;;;;;;;3.25;3.25;;;;;18.13;59.93;102062.75;5065487;28;45272;-85
2022/07/07 04:13:55;;;;;;;;;5.00;5.00;;;;;18.04;60.31;102047.75;5059009;28;48429;-84
2022/07/07 04:16:21;;;;;;;;;4.00;3.67;;;;;18.08;60.48;102058.34;5075361;28;45247;-85
2022/07/07 04:18:46;;;;;;;;;4.00;3.00;;;;;18.22;60.54;102079.47;5083431;28;45422;-84
2022/07/07 04:21:12;;;;;;;;;5.00;5.00;;;;;18.09;60.50;102053.88;5066013;28;45250;-85
2022/07/07 04:23:37;;;;;;;;;7.50;5.00;;;;;18.23;60.60;102080.34;5065384;28;47328;-85
2022/07/07 04:26:02;;;;;;;;;5.00;5.00;;;;;18.16;60.83;102062.69;5061538;28;45262;-86
2022/07/07 04:28:31;;;;;;;;;4.00;4.00;;;;;18.26;60.72;102080.34;5065249;28;45286;-85
2022/07/07 04:30:57;;;;;;;;;4.00;4.00;;;;;18.17;60.81;102068.00;5065114;28;45555;-84
2022/07/07 04:33:22;;;;;;;;;4.75;4.75;;;;;18.19;60.83;102068.84;5065987;28;48187;-85
2022/07/07 04:35:48;;;;;;;;;5.00;5.00;;;;;18.19;61.15;102073.31;5084662;28;45247;-87
2022/07/07 04:38:13;;;;;;;;;5.00;5.00;;;;;18.11;60.89;102057.41;5066532;28;45480;-84
2022/07/07 04:40:40;;;;;;;;;5.00;5.00;;;;;18.25;61.03;102081.22;5049697;28;46084;-85
2022/07/07 04:43:06;;;;;;;;;6.00;6.00;;;;;18.24;60.98;102077.66;5065788;28;47139;-86
2022/07/07 04:45:58;;;;;;;;;6.25;5.00;;;;;18.18;61.00;102083.09;5062592;28;45434;-85
2022/07/07 04:48:23;;;;;;;;;6.00;5.75;;;;;18.27;60.95;102092.75;5060526;28;45445;-85
2022/07/07 04:50:57;;;;;;;;;5.00;5.00;;;;;18.34;61.30;102107.75;5064008;28;45426;-84
2022/07/07 04:53:45;;;;;;;;;4.25;4.25;;;;;18.34;61.29;102101.56;5066433;28;46985;-85
2022/07/07 04:59:46;;;;;;;;;;;;;;;;;;;;;
2022/07/07 05:03:00;;;;;;;;;;;;;;;;;;;;;
2022/07/07 05:05:50;;;;;;;;;;;;;;;;;;;;;
2022/07/07 05:09:17;;;;;;;;;;;;;;;;;;;;;
2022/07/07 05:12:02;;;;;;;;;;;;;;;;;;;;;
2022/07/07 05:14:40;;;;;;;;;;;;;;;;;;;;;
2022/07/07 05:17:25;;;;;;;;;6.25;5.75;;;;;18.79;61.04;102101.78;5084627;28;74759;-85
2022/07/07 05:20:01;;;;;;;;;;;;;;;;;;;;;
2022/07/07 05:22:39;;;;;;;;;;;;;;;;;;;;;
2022/07/07 05:25:24;;;;;;;;;;;;;;;;;;;;;
2022/07/07 05:28:01;;;;;;;;;;;;;;;;;;;;;
2022/07/07 05:30:37;;;;;;;;;;;;;;;;;;;;;
2022/07/07 05:33:13;;;;;;;;;;;;;;;;;;;;;
2022/07/07 05:35:40;;;;;;;;;5.00;5.00;;;;;19.15;61.05;102122.50;5081425;28;72816;-86
2022/07/07 05:38:08;;;;;;;;;4.50;4.50;;;;;19.11;60.96;102112.81;5061784;28;48192;-85
2022/07/07 05:40:44;;;;;;;;;;;;;;;;;;;;;
2022/07/07 05:43:09;;;;;;;;;4.25;3.50;;;;;19.24;60.41;102134.81;5078225;28;68649;-85
2022/07/07 05:45:35;;;;;;;;;4.75;4.00;;;;;19.16;60.81;102115.38;5060346;28;45472;-85
2022/07/07 05:48:00;;;;;;;;;5.67;5.00;;;;;19.27;60.73;102128.53;5060433;28;47009;-85
2022/07/07 05:50:26;;;;;;;;;5.25;5.25;;;;;19.21;60.52;102121.53;5061472;28;45477;-82
2022/07/07 05:52:51;;;;;;;;;6.33;4.33;;;;;19.22;60.90;102109.03;5061533;28;45415;-83
2022/07/07 05:55:19;;;;;;;;;3.67;3.67;;;;;19.23;60.51;102102.81;5049426;28;45590;-81
2022/07/07 05:57:57;;;;;;;;;;;;;;;;;;;;;
2022/07/07 06:00:28;;;;;;;;;5.75;4.25;;;;;19.36;60.60;102102.56;5078738;28;71481;-81
2022/07/07 06:03:05;;;;;;;;;;;;;;;;;;;;;
2022/07/07 06:05:43;;;;;;;;;;;;;;;;;;;;;
2022/07/07 06:08:22;;;;;;;;;;;;;;;;;;;;;
2022/07/07 06:11:11;;;;;;;;;;;;;;;;;;;;;
2022/07/07 06:13:49;;;;;;;;;;;;;;;;;;;;;
2022/07/07 06:16:41;;;;;;;;;4.00;4.00;;;;;19.59;60.41;102147.56;5078431;28;73104;-80
2022/07/07 06:19:24;;;;;;;;;7.25;5.75;;;;;19.53;60.35;102147.66;5066357;28;46173;-81
2022/07/07 06:21:49;;;;;;;;;4.33;3.33;;;;;19.57;60.33;102156.50;5059023;28;45278;-82
2022/07/07 06:24:20;;;;;;;;;3.00;3.00;;;;;19.54;60.34;102153.88;5058873;28;45350;-83
2022/07/07 06:27:15;;;;;;;;;;;;;;;;;;;;;
2022/07/07 06:30:20;;;;;;;;;;;;;;;;;;;;;
2022/07/07 06:32:45;;;;;;;;;5.00;3.67;;;;;19.81;60.33;102169.44;5081507;28;72757;-81
2022/07/07 06:35:26;;;;;;;;;5.00;4.00;;;;;19.90;60.50;102175.50;5064586;28;45387;-82
2022/07/07 06:37:54;;;;;;;;;4.00;4.00;;;;;19.96;60.02;102186.06;5064393;28;45629;-83
2022/07/07 06:40:25;;;;;;;;;6.33;5.67;;;;;19.92;60.25;102169.22;5053415;28;47153;-84
2022/07/07 06:43:29;;;;;;;;;;;;;;;;;;;;;
2022/07/07 06:52:38;;;;;;;;;3.00;3.00;;;;;20.28;59.45;102180.94;5012579;28;45486;-78
2022/07/07 06:55:09;;;;;;;;;6.33;3.33;;;;;20.38;59.26;102184.31;5080877;28;45235;-78
2022/07/07 06:57:37;;;;;;;;;3.33;3.00;;;;;20.47;59.48;102180.53;5063912;28;45450;-78
2022/07/07 07:00:03;;;;;;;;;4.00;4.00;;;;;20.53;59.20;102174.16;5082289;28;45523;-77
2022/07/07 07:02:30;;;;;;;;;3.67;3.67;;;;;20.65;58.68;102173.94;5081669;28;45600;-77
2022/07/07 07:05:01;;;;;;;;;4.67;4.67;;;;;20.81;58.74;102183.38;5063469;28;45493;-77
2022/07/07 07:07:31;;;;;;;;;3.00;3.00;;;;;20.89;58.67;102173.38;5081640;28;45241;-78
2022/07/07 07:09:58;;;;;;;;;4.33;3.33;;;;;21.03;57.81;102173.03;5081621;28;45365;-78
2022/07/07 07:12:27;;;;;;;;;2.33;2.33;;;;;21.16;57.59;102184.31;5081586;28;45422;-78
2022/07/07 07:14:55;;;;;;;;;2.00;2.00;;;;;21.23;57.36;102185.94;5081819;28;45223;-78
2022/07/07 07:17:23;;;;;;;;;4.00;3.00;;;;;21.30;56.98;102186.66;5081953;28;45307;-78
2022/07/07 07:19:53;;;;;;;;;3.00;2.00;;;;;21.36;56.80;102192.75;5063836;28;46104;-79
2022/07/07 07:22:26;;;;;;;;;3.33;2.33;;;;;21.44;56.83;102200.63;5081921;28;45476;-79
2022/07/07 07:24:57;;;;;;;;;4.00;4.00;;;;;21.51;56.57;102207.56;5063141;28;45293;-77
2022/07/07 07:27:25;;;;;;;;;3.00;3.00;;;;;21.58;56.23;102200.25;5063284;28;45506;-76
2022/07/07 07:29:50;;;;;;;;;2.00;1.00;;;;;21.68;56.09;102216.97;5081534;28;45243;-79
2022/07/07 07:32:20;;;;;;;;;3.33;2.33;;;;;21.71;56.14;102214.22;5063158;28;48494;-80
2022/07/07 07:34:54;;;;;;;;;3.33;2.00;;;;;21.76;55.92;102212.31;5081322;27;45481;-81
2022/07/07 07:37:26;;;;;;;;;4.00;4.00;;;;;21.78;55.52;102218.47;5077504;28;45461;-79
2022/07/07 07:39:59;;;;;;;;;4.67;3.67;;;;;21.76;55.38;102223.03;5079024;28;45420;-79
2022/07/07 07:42:27;;;;;;;;;1.33;1.33;;;;;21.70;55.23;102224.03;5079178;27;45972;-79
2022/07/07 07:45:11;;;;;;;;;2.00;2.00;;;;;21.72;55.47;102226.69;5081133;28;45263;-76
2022/07/07 07:47:44;;;;;;;;;2.67;2.67;;;;;21.71;55.59;102223.16;5083328;27;45298;-84
2022/07/07 07:50:15;;;;;;;;;3.67;3.67;;;;;21.70;55.76;102224.03;5086505;27;45465;-78
2022/07/07 07:52:41;;;;;;;;;2.00;2.00;;;;;21.72;55.44;102232.94;5083138;27;46221;-78
2022/07/07 07:55:14;;;;;;;;;2.00;2.00;;;;;21.68;55.37;102230.38;5080273;27;45444;-77
2022/07/07 07:57:40;;;;;;;;;2.67;2.67;;;;;21.74;55.39;102230.22;5080398;27;45613;-77
2022/07/07 08:00:13;;;;;;;;;8.25;8.00;;;;;21.82;55.21;102241.63;5079636;28;45421;-78
2022/07/07 08:02:41;;;;;;;;;3.00;2.33;;;;;21.95;55.38;102229.66;5078597;27;45426;-78
2022/07/07 08:05:11;;;;;;;;;2.33;2.33;;;;;22.13;54.92;102230.03;5080483;28;45390;-77
2022/07/07 08:07:42;;;;;;;;;3.00;3.00;;;;;22.33;54.39;102234.88;5079971;27;45331;-79
2022/07/07 08:10:11;;;;;;;;;3.00;1.00;;;;;22.54;54.24;102226.19;5084933;27;45514;-77
2022/07/07 08:12:41;;;;;;;;;2.67;2.00;;;;;22.68;53.90;102223.97;5079796;28;45377;-77
2022/07/07 08:15:12;;;;;;;;;2.00;2.00;;;;;22.81;53.12;102226.28;5072823;27;45511;-78
2022/07/07 08:17:40;;;;;;;;;2.00;1.67;;;;;22.90;52.78;102217.91;5082116;27;45324;-78
2022/07/07 08:20:13;;;;;;;;;2.00;2.00;;;;;22.97;52.79;102224.91;5084243;27;45382;-78
2022/07/07 08:22:43;;;;;;;;;2.00;2.00;;;;;23.02;52.00;102222.94;5079169;27;45463;-77
2022/07/07 08:25:11;;;;;;;;;2.00;2.00;;;;;23.02;52.03;102214.03;5077624;28;45607;-77
2022/07/07 08:27:39;;;;;;;;;2.00;2.00;;;;;23.10;51.96;102206.59;5065009;28;45488;-78
2022/07/07 08:30:11;;;;;;;;;3.00;3.00;;;;;23.22;51.22;102199.91;5064958;27;45476;-77
2022/07/07 08:32:45;;;;;;;;;2.33;1.00;;;;;23.28;51.65;102199.69;5067480;28;47606;-77
2022/07/07 08:35:18;;;;;;;;;11.50;11.50;;;;;23.29;51.30;102207.72;5080671;27;45312;-78
2022/07/07 08:37:48;;;;;;;;;7.67;7.00;;;;;23.30;51.40;102205.91;5081548;27;45456;-77
2022/07/07 08:40:14;;;;;;;;;2.00;1.00;;;;;23.30;50.85;102212.16;5089293;27;45515;-78
2022/07/07 08:42:42;;;;;;;;;4.33;4.33;;;;;23.35;50.54;102212.00;5069301;27;47806;-77
2022/07/07 08:45:10;;;;;;;;;5.00;4.00;;;;;23.48;50.51;102207.09;5080202;28;45459;-77
2022/07/07 08:47:44;;;;;;;;;1.33;1.00;;;;;23.65;49.79;102210.06;5082127;27;45362;-77
2022/07/07 08:50:09;;;;;;;;;1.33;1.33;;;;;23.83;49.47;102218.47;5067483;27;45491;-78
2022/07/07 08:52:38;;;;;;;;;1.33;1.33;;;;;23.95;49.05;102218.00;5082209;27;46231;-77
2022/07/07 08:55:09;;;;;;;;;1.00;1.00;;;;;24.02;48.67;102224.06;5082774;27;45309;-77
2022/07/07 08:57:38;;;;;;;;;1.00;1.00;;;;;24.13;48.54;102227.22;5080591;27;45176;-77
2022/07/07 09:00:06;;;;;;;;;1.00;1.00;;;;;24.21;48.38;102226.00;5070081;28;45661;-77
2022/07/07 09:02:34;;;;;;;;;6.33;4.33;;;;;24.36;48.25;102227.25;5064409;28;47028;-78
2022/07/07 09:04:59;;;;;;;;;0.00;0.00;;;;;24.41;48.01;102219.88;5079823;28;45511;-77
2022/07/07 09:07:52;;;;;;;;;2.00;2.00;;;;;24.47;47.72;102220.63;5078467;27;45778;-77
2022/07/07 09:10:40;;;;;;;;;0.33;0.33;;;;;24.56;47.15;102221.13;5066450;27;45534;-77
2022/07/07 09:13:27;;;;;;;;;1.00;1.00;;;;;24.58;47.18;102231.84;5082725;28;45260;-78
2022/07/07 09:15:56;;;;;;;;;0.33;0.33;;;;;24.53;47.12;102232.03;5079887;27;45292;-78
2022/07/07 09:18:40;;;;;;;;;2.00;1.00;;;;;24.51;47.46;102231.22;5083870;27;45480;-78
2022/07/07 09:21:26;;;;;;;;;1.00;1.00;;;;;24.53;47.19;102237.41;5079338;28;45316;-77
2022/07/07 09:23:56;;;;;;;;;1.67;1.67;;;;;24.49;47.27;102235.78;5072295;28;46128;-77
2022/07/07 09:26:40;;;;;;;;;1.33;1.00;;;;;24.54;47.65;102228.41;5065261;27;45835;-77
2022/07/07 09:29:14;;;;;;;;;1.67;1.00;;;;;24.60;46.97;102232.69;5048754;28;45325;-77
2022/07/07 09:31:57;;;;;;;;;1.00;1.00;;;;;24.69;46.62;102240.38;5090319;27;45566;-76
2022/07/07 09:34:33;;;;;;;;;0.67;0.67;;;;;24.67;46.83;102238.69;5084219;27;46007;-75
2022/07/07 09:39:52;;;;;;;;;2.00;2.00;;;;;24.43;46.79;102252.13;5091459;27;45298;-78
2022/07/07 09:42:29;;;;;;;;;3.33;2.00;;;;;24.28;47.26;102267.03;5085320;27;45495;-78
2022/07/07 09:45:00;;;;;;;;;2.00;2.00;;;;;24.15;47.54;102265.72;5079150;27;45436;-77
2022/07/07 09:47:25;;;;;;;;;2.00;2.00;;;;;24.04;47.85;102266.13;5080881;27;45482;-78
2022/07/07 09:50:09;;;;;;;;;1.67;1.67;;;;;23.92;47.68;102275.53;5081616;27;45466;-77
2022/07/07 09:52:45;;;;;;;;;0.67;0.67;;;;;23.75;48.04;102276.09;5082764;27;45543;-76
2022/07/07 09:55:11;;;;;;;;;0.00;0.00;;;;;23.59;48.00;102282.88;5081594;27;45927;-76
2022/07/07 09:57:40;;;;;;;;;2.00;2.00;;;;;23.43;48.43;102293.28;5079058;27;45489;-74
2022/07/07 10:00:13;;;;;;;;;1.00;1.00;;;;;23.32;48.21;102304.38;5086846;27;45335;-78
2022/07/07 10:02:42;;;;;;;;;2.67;1.33;;;;;23.21;48.28;102305.66;5063765;28;45487;-75
2022/07/07 10:05:12;;;;;;;;;2.33;2.00;;;;;23.12;48.22;102306.81;5081128;28;45412;-76
2022/07/07 10:07:42;;;;;;;;;1.00;1.00;;;;;23.03;48.72;102307.09;5074443;28;45475;-76
2022/07/07 10:10:12;;;;;;;;;1.67;1.67;;;;;23.03;49.11;102310.66;5079741;28;45541;-76
2022/07/07 10:12:49;;;;;;;;;2.00;2.00;;;;;23.11;48.62;102319.38;5070096;28;45611;-76
2022/07/07 10:15:19;;;;;;;;;2.67;2.00;;;;;23.13;48.63;102326.50;5081112;28;45346;-77
2022/07/07 10:17:45;;;;;;;;;1.00;1.00;;;;;23.11;48.94;102324.75;5081255;28;45532;-77
2022/07/07 10:20:13;;;;;;;;;1.00;1.00;;;;;23.10;48.86;102322.13;5081374;27;45511;-74
2022/07/07 10:22:45;;;;;;;;;1.00;0.67;;;;;23.14;49.32;102325.56;5080755;28;45406;-75
2022/07/07 10:25:11;;;;;;;;;1.67;1.67;;;;;23.22;49.00;102326.22;5080273;28;45313;-75
2022/07/07 10:27:42;;;;;;;;;3.00;1.33;;;;;23.36;49.05;102323.97;5080215;28;45644;-75
2022/07/07 10:30:30;;;;;;;;;2.33;2.00;;;;;23.63;48.83;102332.06;5080938;27;45356;-75
2022/07/07 10:33:01;;;;;;;;;2.67;2.67;;;;;23.89;48.72;102331.22;5079516;28;45470;-76
2022/07/07 10:35:27;;;;;;;;;1.33;1.33;;;;;24.14;48.46;102334.84;5080517;28;45435;-76
2022/07/07 10:37:58;;;;;;;;;2.00;2.00;;;;;24.37;47.82;102341.19;5080355;28;45381;-76
2022/07/07 10:40:40;;;;;;;;;2.00;2.00;;;;;24.53;46.91;102337.03;5061158;28;45562;-76
2022/07/07 10:43:24;;;;;;;;;3.00;2.00;;;;;24.72;47.18;102336.34;5080289;28;45512;-76
2022/07/07 10:45:56;;;;;;;;;1.33;1.33;;;;;24.89;46.12;102338.44;5080703;28;46644;-77
2022/07/07 10:48:49;;;;;;;;;2.00;2.00;;;;;24.93;45.94;102345.44;5069969;28;45469;-76
2022/07/07 10:51:17;;;;;;;;;3.67;2.67;;;;;24.85;45.68;102343.91;5062753;28;45330;-77
2022/07/07 10:54:10;;;;;;;;;3.33;2.33;;;;;24.78;45.99;102353.19;5078750;28;45480;-76
2022/07/07 10:56:51;;;;;;;;;2.33;2.33;;;;;24.75;46.03;102344.31;5073761;28;45904;-76
2022/07/07 10:59:17;;;;;;;;;2.00;2.00;;;;;24.71;45.72;102346.25;5061470;28;45527;-76
2022/07/07 11:02:00;;;;;;;;;4.00;3.00;;;;;24.74;46.25;102343.44;5080753;27;45485;-76
2022/07/07 11:04:50;;;;;;;;;2.00;2.00;;;;;24.82;45.78;102335.09;5071149;28;45477;-76
2022/07/07 11:07:21;;;;;;;;;2.00;2.00;;;;;24.89;45.58;102342.00;5079822;28;45477;-75
2022/07/07 11:10:01;;;;;;;;;4.00;3.33;;;;;24.97;45.31;102342.59;5061796;28;45736;-76
2022/07/07 11:12:43;;;;;;;;;5.00;4.00;;;;;24.99;45.42;102345.19;5050195;28;45371;-76
2022/07/07 11:15:17;;;;;;;;;4.00;4.00;;;;;24.93;45.68;102353.53;5079485;27;45503;-76
2022/07/07 11:18:03;;;;;;;;;2.33;2.33;;;;;24.80;45.07;102347.72;5078888;28;46034;-75
2022/07/07 11:20:32;;;;;;;;;3.67;3.67;;;;;24.70;45.23;102352.59;5070511;27;45496;-76
2022/07/07 11:23:12;;;;;;;;;2.67;2.67;;;;;24.57;44.73;102354.84;5080159;28;45346;-76
2022/07/07 11:25:41;;;;;;;;;3.00;3.00;;;;;24.53;45.03;102357.72;5079665;28;45450;-75
2022/07/07 11:28:10;;;;;;;;;2.67;2.67;;;;;24.53;45.33;102355.03;5079077;28;45408;-75
2022/07/07 11:30:40;;;;;;;;;3.00;3.00;;;;;24.51;44.65;102359.56;5080207;28;45398;-76
2022/07/07 11:33:11;;;;;;;;;2.67;2.00;;;;;24.54;44.80;102359.47;5078974;28;45414;-76
2022/07/07 11:35:40;;;;;;;;;2.00;2.00;;;;;24.50;44.72;102360.53;5080359;27;45543;-76
2022/07/07 11:38:13;;;;;;;;;3.33;3.33;;;;;24.37;44.73;102360.91;5078865;28;45529;-77
2022/07/07 11:40:43;;;;;;;;;1.67;1.67;;;;;24.26;45.24;102368.50;5078821;27;45417;-75
2022/07/07 11:43:27;;;;;;;;;2.00;2.00;;;;;24.17;45.42;102372.41;5077985;28;45445;-76
2022/07/07 11:45:57;;;;;;;;;2.00;2.00;;;;;24.17;45.13;102372.41;5066560;28;45614;-76
2022/07/07 11:48:23;;;;;;;;;3.00;3.00;;;;;24.23;45.91;102373.13;5053848;28;47498;-76
2022/07/07 11:50:51;;;;;;;;;3.00;3.00;;;;;24.34;45.23;102376.31;5076246;28;45447;-77
2022/07/07 11:53:22;;;;;;;;;1.33;1.33;;;;;24.46;44.88;102385.78;5079530;28;45626;-79
2022/07/07 11:55:47;;;;;;;;;3.00;3.00;;;;;24.50;44.70;102377.56;5079921;28;45477;-78
2022/07/07 11:58:13;;;;;;;;;3.00;2.67;;;;;24.54;44.20;102379.22;5060222;28;47671;-79
2022/07/07 12:00:41;;;;;;;;;2.00;2.00;;;;;24.58;44.48;102386.22;5079988;28;45630;-78
2022/07/07 12:03:08;;;;;;;;;3.00;2.00;;;;;24.58;43.89;102382.66;5079747;28;45384;-74
2022/07/07 12:05:46;;;;;;;;;2.00;2.00;;;;;24.53;44.11;102384.63;5079432;28;45376;-76
2022/07/07 12:08:17;;;;;;;;;2.33;2.00;;;;;24.52;43.86;102386.47;5079168;28;45447;-76
2022/07/07 12:10:52;;;;;;;;;1.67;1.67;;;;;24.64;43.66;102386.03;5078888;28;45349;-76
2022/07/07 12:13:19;;;;;;;;;2.00;2.00;;;;;24.77;44.13;102385.56;5079680;28;45421;-77
2022/07/07 12:15:53;;;;;;;;;3.33;3.33;;;;;24.92;43.80;102389.50;5079492;28;45406;-76
2022/07/07 12:18:32;;;;;;;;;5.33;4.33;;;;;24.99;44.19;102393.72;5079275;28;45400;-77
2022/07/07 12:21:01;;;;;;;;;2.00;2.00;;;;;24.98;44.02;102391.97;5061321;28;45652;-76
2022/07/07 12:23:36;;;;;;;;;2.00;2.00;;;;;24.96;43.72;102402.78;5078472;28;45401;-76